sensor_id;sensor_type;location;lat;lon;timestamp;temperature;humidity
62339;DHT22;48368;53.406;6.214;2023-03-01T00:02:02;0.10;99.90
62339;DHT22;48368;53.406;6.214;2023-03-01T00:04:28;0.10;99.90
62339;DHT22;48368;53.406;6.214;2023-03-01T00:06:54;0.00;99.90
62339;DHT22;48368;53.406;6.214;2023-03-01T00:09:19;0.10;99.90
62339;DHT22;48368;53.406;6.214;2023-03-01T00:11:45;0.00;99.90
62339;DHT22;48368;53.406;6.214;2023-03-01T00:14:11;0.00;99.90
62339;DHT22;48368;53.406;6.214;2023-03-01T00:16:40;0.00;99.90
62339;DHT22;48368;53.406;6.214;2023-03-01T00:19:08;0.00;99.90
62339;DHT22;48368;53.406;6.214;2023-03-01T00:21:35;0.00;99.90
62339;DHT22;48368;53.406;6.214;2023-03-01T00:24:01;0.00;99.90
62339;DHT22;48368;53.406;6.214;2023-03-01T00:26:27;0.00;99.90
62339;DHT22;48368;53.406;6.214;2023-03-01T00:28:54;0.00;99.90
62339;DHT22;48368;53.406;6.214;2023-03-01T00:31:26;-0.10;99.90
62339;DHT22;48368;53.406;6.214;2023-03-01T00:33:54;-0.10;99.90
62339;DHT22;48368;53.406;6.214;2023-03-01T00:36:25;0.00;99.90
62339;DHT22;48368;53.406;6.214;2023-03-01T00:38:51;-0.10;99.90
62339;DHT22;48368;53.406;6.214;2023-03-01T00:41:22;-0.20;99.90
62339;DHT22;48368;53.406;6.214;2023-03-01T00:43:49;-0.20;99.90
62339;DHT22;48368;53.406;6.214;2023-03-01T00:46:17;-0.20;99.90
62339;DHT22;48368;53.406;6.214;2023-03-01T00:48:43;-0.20;99.90
62339;DHT22;48368;53.406;6.214;2023-03-01T00:51:18;-0.20;99.90
62339;DHT22;48368;53.406;6.214;2023-03-01T00:53:44;-0.30;99.90
62339;DHT22;48368;53.406;6.214;2023-03-01T00:56:11;-0.20;99.90
62339;DHT22;48368;53.406;6.214;2023-03-01T00:58:38;-0.30;99.90
62339;DHT22;48368;53.406;6.214;2023-03-01T01:01:12;-0.20;99.90
62339;DHT22;48368;53.406;6.214;2023-03-01T01:03:47;-0.30;99.90
62339;DHT22;48368;53.406;6.214;2023-03-01T01:06:17;-0.30;99.90
62339;DHT22;48368;53.406;6.214;2023-03-01T01:08:43;-0.30;99.90
62339;DHT22;48368;53.406;6.214;2023-03-01T01:11:12;-0.40;99.90
62339;DHT22;48368;53.406;6.214;2023-03-01T01:13:39;-0.40;99.90
62339;DHT22;48368;53.406;6.214;2023-03-01T01:16:05;-0.40;99.90
62339;DHT22;48368;53.406;6.214;2023-03-01T01:18:31;-0.50;99.90
62339;DHT22;48368;53.406;6.214;2023-03-01T01:20:57;-0.40;99.90
62339;DHT22;48368;53.406;6.214;2023-03-01T01:23:23;-0.50;99.90
62339;DHT22;48368;53.406;6.214;2023-03-01T01:25:48;-0.40;99.90
62339;DHT22;48368;53.406;6.214;2023-03-01T01:28:14;-0.60;99.90
62339;DHT22;48368;53.406;6.214;2023-03-01T01:30:40;-0.60;99.90
62339;DHT22;48368;53.406;6.214;2023-03-01T01:33:05;-0.50;99.90
62339;DHT22;48368;53.406;6.214;2023-03-01T01:35:31;-0.60;99.90
62339;DHT22;48368;53.406;6.214;2023-03-01T01:37:56;-0.40;99.90
62339;DHT22;48368;53.406;6.214;2023-03-01T01:40:22;-0.40;99.90
62339;DHT22;48368;53.406;6.214;2023-03-01T01:42:47;-0.50;99.90
62339;DHT22;48368;53.406;6.214;2023-03-01T01:45:30;-0.40;99.90
62339;DHT22;48368;53.406;6.214;2023-03-01T01:48:00;-0.30;99.90
62339;DHT22;48368;53.406;6.214;2023-03-01T01:50:28;-0.30;99.90
62339;DHT22;48368;53.406;6.214;2023-03-01T01:53:07;-0.20;99.90
62339;DHT22;48368;53.406;6.214;2023-03-01T01:55:36;-0.20;99.90
62339;DHT22;48368;53.406;6.214;2023-03-01T01:58:05;-0.20;99.90
62339;DHT22;48368;53.406;6.214;2023-03-01T02:00:32;-0.20;99.90
62339;DHT22;48368;53.406;6.214;2023-03-01T02:03:00;-0.20;99.90
62339;DHT22;48368;53.406;6.214;2023-03-01T02:05:38;-0.10;99.90
62339;DHT22;48368;53.406;6.214;2023-03-01T02:08:05;-0.20;99.90
62339;DHT22;48368;53.406;6.214;2023-03-01T02:10:33;-0.10;99.90
62339;DHT22;48368;53.406;6.214;2023-03-01T02:13:00;-0.20;99.90
62339;DHT22;48368;53.406;6.214;2023-03-01T02:15:26;-0.20;99.90
62339;DHT22;48368;53.406;6.214;2023-03-01T02:17:52;-0.20;99.90
62339;DHT22;48368;53.406;6.214;2023-03-01T02:23:36;-0.20;99.90
62339;DHT22;48368;53.406;6.214;2023-03-01T02:26:11;-0.20;99.90
62339;DHT22;48368;53.406;6.214;2023-03-01T02:28:44;-0.30;99.90
62339;DHT22;48368;53.406;6.214;2023-03-01T02:31:14;-0.30;99.90
62339;DHT22;48368;53.406;6.214;2023-03-01T02:34:00;-0.40;99.90
62339;DHT22;48368;53.406;6.214;2023-03-01T02:36:36;-0.40;99.90
62339;DHT22;48368;53.406;6.214;2023-03-01T02:39:05;-0.40;99.90
62339;DHT22;48368;53.406;6.214;2023-03-01T02:41:36;-0.40;99.90
62339;DHT22;48368;53.406;6.214;2023-03-01T02:44:04;-0.40;99.90
62339;DHT22;48368;53.406;6.214;2023-03-01T02:46:30;-0.40;99.90
62339;DHT22;48368;53.406;6.214;2023-03-01T02:48:57;-0.60;99.90
62339;DHT22;48368;53.406;6.214;2023-03-01T02:51:42;-0.50;99.90
62339;DHT22;48368;53.406;6.214;2023-03-01T02:56:48;-0.60;99.90
62339;DHT22;48368;53.406;6.214;2023-03-01T02:59:16;-0.60;99.90
62339;DHT22;48368;53.406;6.214;2023-03-01T03:01:43;-0.60;99.90
62339;DHT22;48368;53.406;6.214;2023-03-01T03:04:13;-0.50;99.90
62339;DHT22;48368;53.406;6.214;2023-03-01T03:06:43;-0.60;99.90
62339;DHT22;48368;53.406;6.214;2023-03-01T03:09:08;-0.60;99.90
62339;DHT22;48368;53.406;6.214;2023-03-01T03:11:34;-0.60;99.90
62339;DHT22;48368;53.406;6.214;2023-03-01T03:13:59;-0.60;99.90
62339;DHT22;48368;53.406;6.214;2023-03-01T03:16:25;-0.70;99.90
62339;DHT22;48368;53.406;6.214;2023-03-01T03:18:51;-0.70;99.90
62339;DHT22;48368;53.406;6.214;2023-03-01T03:21:17;-0.70;99.90
62339;DHT22;48368;53.406;6.214;2023-03-01T03:23:43;-0.70;99.90
62339;DHT22;48368;53.406;6.214;2023-03-01T03:26:09;-0.80;99.90
62339;DHT22;48368;53.406;6.214;2023-03-01T03:28:38;-0.70;99.90
62339;DHT22;48368;53.406;6.214;2023-03-01T03:31:07;-0.70;99.90
62339;DHT22;48368;53.406;6.214;2023-03-01T03:33:33;-0.80;99.90
62339;DHT22;48368;53.406;6.214;2023-03-01T03:35:58;-0.70;99.90
62339;DHT22;48368;53.406;6.214;2023-03-01T03:38:24;-0.60;99.90
62339;DHT22;48368;53.406;6.214;2023-03-01T03:41:08;-0.80;99.90
62339;DHT22;48368;53.406;6.214;2023-03-01T03:43:36;-0.70;99.90
62339;DHT22;48368;53.406;6.214;2023-03-01T03:46:03;-0.90;99.90
62339;DHT22;48368;53.406;6.214;2023-03-01T03:48:35;-0.90;99.90
62339;DHT22;48368;53.406;6.214;2023-03-01T03:51:01;-0.80;99.90
62339;DHT22;48368;53.406;6.214;2023-03-01T03:53:28;-0.80;99.90
62339;DHT22;48368;53.406;6.214;2023-03-01T03:55:54;-0.90;99.90
62339;DHT22;48368;53.406;6.214;2023-03-01T03:58:22;-0.70;99.90
62339;DHT22;48368;53.406;6.214;2023-03-01T04:00:51;-0.80;99.90
62339;DHT22;48368;53.406;6.214;2023-03-01T04:03:18;-0.80;99.90
62339;DHT22;48368;53.406;6.214;2023-03-01T04:05:44;-0.80;99.90
62339;DHT22;48368;53.406;6.214;2023-03-01T04:08:10;-0.60;99.90
62339;DHT22;48368;53.406;6.214;2023-03-01T04:10:38;-0.60;99.90
62339;DHT22;48368;53.406;6.214;2023-03-01T04:13:05;-0.70;99.90
62339;DHT22;48368;53.406;6.214;2023-03-01T04:15:32;-0.60;99.90
62339;DHT22;48368;53.406;6.214;2023-03-01T04:17:59;-0.50;99.90
62339;DHT22;48368;53.406;6.214;2023-03-01T04:20:28;-0.70;99.90
62339;DHT22;48368;53.406;6.214;2023-03-01T04:23:10;-0.60;99.90
62339;DHT22;48368;53.406;6.214;2023-03-01T04:25:49;-0.60;99.90
62339;DHT22;48368;53.406;6.214;2023-03-01T04:28:38;-0.60;99.90
62339;DHT22;48368;53.406;6.214;2023-03-01T04:31:15;-0.50;99.90
62339;DHT22;48368;53.406;6.214;2023-03-01T04:33:51;-0.50;99.90
62339;DHT22;48368;53.406;6.214;2023-03-01T04:36:17;-0.60;99.90
62339;DHT22;48368;53.406;6.214;2023-03-01T04:38:44;-0.60;99.90
62339;DHT22;48368;53.406;6.214;2023-03-01T04:41:15;-0.60;99.90
62339;DHT22;48368;53.406;6.214;2023-03-01T04:43:41;-0.50;99.90
62339;DHT22;48368;53.406;6.214;2023-03-01T04:46:10;-0.60;99.90
62339;DHT22;48368;53.406;6.214;2023-03-01T04:48:37;-0.50;99.90
62339;DHT22;48368;53.406;6.214;2023-03-01T04:51:03;-0.60;99.90
62339;DHT22;48368;53.406;6.214;2023-03-01T04:53:30;-0.50;99.90
62339;DHT22;48368;53.406;6.214;2023-03-01T04:55:56;-0.50;99.90
62339;DHT22;48368;53.406;6.214;2023-03-01T04:58:26;-0.40;99.90
62339;DHT22;48368;53.406;6.214;2023-03-01T05:00:53;-0.40;99.90
62339;DHT22;48368;53.406;6.214;2023-03-01T05:03:19;-0.50;99.90
62339;DHT22;48368;53.406;6.214;2023-03-01T05:05:48;-0.40;99.90
62339;DHT22;48368;53.406;6.214;2023-03-01T05:08:14;-0.30;99.90
62339;DHT22;48368;53.406;6.214;2023-03-01T05:10:53;-0.30;99.90
62339;DHT22;48368;53.406;6.214;2023-03-01T05:13:20;-0.40;99.90
62339;DHT22;48368;53.406;6.214;2023-03-01T05:15:57;-0.20;99.90
62339;DHT22;48368;53.406;6.214;2023-03-01T05:18:25;-0.30;99.90
62339;DHT22;48368;53.406;6.214;2023-03-01T05:21:04;-0.30;99.90
62339;DHT22;48368;53.406;6.214;2023-03-01T05:23:31;-0.30;99.90
62339;DHT22;48368;53.406;6.214;2023-03-01T05:25:58;-0.50;99.90
62339;DHT22;48368;53.406;6.214;2023-03-01T05:28:25;-0.40;99.90
62339;DHT22;48368;53.406;6.214;2023-03-01T05:30:51;-0.50;99.90
62339;DHT22;48368;53.406;6.214;2023-03-01T05:33:17;-0.50;99.90
62339;DHT22;48368;53.406;6.214;2023-03-01T05:35:44;-0.60;99.90
62339;DHT22;48368;53.406;6.214;2023-03-01T05:38:11;-0.60;99.90
62339;DHT22;48368;53.406;6.214;2023-03-01T05:40:42;-0.70;99.90
62339;DHT22;48368;53.406;6.214;2023-03-01T05:43:09;-0.80;99.90
62339;DHT22;48368;53.406;6.214;2023-03-01T05:45:36;-0.80;99.90
62339;DHT22;48368;53.406;6.214;2023-03-01T05:48:03;-0.70;99.90
62339;DHT22;48368;53.406;6.214;2023-03-01T05:50:33;-0.90;99.90
62339;DHT22;48368;53.406;6.214;2023-03-01T05:53:04;-0.70;99.90
62339;DHT22;48368;53.406;6.214;2023-03-01T05:55:32;-0.90;99.90
62339;DHT22;48368;53.406;6.214;2023-03-01T05:57:59;-0.90;99.90
62339;DHT22;48368;53.406;6.214;2023-03-01T06:00:25;-0.90;99.90
62339;DHT22;48368;53.406;6.214;2023-03-01T06:02:53;-0.90;99.90
62339;DHT22;48368;53.406;6.214;2023-03-01T06:05:19;-0.80;99.90
62339;DHT22;48368;53.406;6.214;2023-03-01T06:07:45;-0.80;99.90
62339;DHT22;48368;53.406;6.214;2023-03-01T06:10:12;-0.90;99.90
62339;DHT22;48368;53.406;6.214;2023-03-01T06:12:39;-0.90;99.90
62339;DHT22;48368;53.406;6.214;2023-03-01T06:15:07;-1.00;99.90
62339;DHT22;48368;53.406;6.214;2023-03-01T06:17:35;-1.00;99.90
62339;DHT22;48368;53.406;6.214;2023-03-01T06:20:06;-1.00;99.90
62339;DHT22;48368;53.406;6.214;2023-03-01T06:22:32;-0.90;99.90
62339;DHT22;48368;53.406;6.214;2023-03-01T06:24:58;-1.00;99.90
62339;DHT22;48368;53.406;6.214;2023-03-01T06:27:24;-1.10;99.90
62339;DHT22;48368;53.406;6.214;2023-03-01T06:29:49;-0.90;99.90
62339;DHT22;48368;53.406;6.214;2023-03-01T06:32:15;-0.90;99.90
62339;DHT22;48368;53.406;6.214;2023-03-01T06:34:41;-0.90;99.90
62339;DHT22;48368;53.406;6.214;2023-03-01T06:37:07;-0.90;99.90
62339;DHT22;48368;53.406;6.214;2023-03-01T06:39:33;-0.80;99.90
62339;DHT22;48368;53.406;6.214;2023-03-01T06:41:59;-0.90;99.90
62339;DHT22;48368;53.406;6.214;2023-03-01T06:44:26;-0.80;99.90
62339;DHT22;48368;53.406;6.214;2023-03-01T06:46:52;-0.80;99.90
62339;DHT22;48368;53.406;6.214;2023-03-01T06:49:17;-0.90;99.90
62339;DHT22;48368;53.406;6.214;2023-03-01T06:51:44;-0.90;99.90
62339;DHT22;48368;53.406;6.214;2023-03-01T06:54:10;-0.80;99.90
62339;DHT22;48368;53.406;6.214;2023-03-01T06:56:36;-1.00;99.90
62339;DHT22;48368;53.406;6.214;2023-03-01T06:59:01;-0.90;99.90
62339;DHT22;48368;53.406;6.214;2023-03-01T07:01:28;-1.00;99.90
62339;DHT22;48368;53.406;6.214;2023-03-01T07:03:54;-0.90;99.90
62339;DHT22;48368;53.406;6.214;2023-03-01T07:06:20;-1.00;99.90
62339;DHT22;48368;53.406;6.214;2023-03-01T07:08:46;-0.90;99.90
62339;DHT22;48368;53.406;6.214;2023-03-01T07:11:12;-0.90;99.90
62339;DHT22;48368;53.406;6.214;2023-03-01T07:13:37;-1.00;99.90
62339;DHT22;48368;53.406;6.214;2023-03-01T07:16:03;-1.00;99.90
62339;DHT22;48368;53.406;6.214;2023-03-01T07:18:29;-0.80;99.90
62339;DHT22;48368;53.406;6.214;2023-03-01T07:20:54;-0.80;99.90
62339;DHT22;48368;53.406;6.214;2023-03-01T07:23:20;-0.80;99.90
62339;DHT22;48368;53.406;6.214;2023-03-01T07:25:54;-0.80;99.90
62339;DHT22;48368;53.406;6.214;2023-03-01T07:28:20;-0.70;99.90
62339;DHT22;48368;53.406;6.214;2023-03-01T07:30:46;-0.70;99.90
62339;DHT22;48368;53.406;6.214;2023-03-01T07:33:11;-0.60;99.90
62339;DHT22;48368;53.406;6.214;2023-03-01T07:35:37;-0.70;99.90
62339;DHT22;48368;53.406;6.214;2023-03-01T07:38:02;-0.70;99.90
62339;DHT22;48368;53.406;6.214;2023-03-01T07:40:28;-0.60;99.90
62339;DHT22;48368;53.406;6.214;2023-03-01T07:42:58;-0.50;99.90
62339;DHT22;48368;53.406;6.214;2023-03-01T07:45:25;-0.50;99.90
62339;DHT22;48368;53.406;6.214;2023-03-01T07:47:54;-0.20;99.90
62339;DHT22;48368;53.406;6.214;2023-03-01T07:50:21;-0.20;99.90
62339;DHT22;48368;53.406;6.214;2023-03-01T07:52:48;-0.10;99.90
62339;DHT22;48368;53.406;6.214;2023-03-01T07:55:15;-0.20;99.90
62339;DHT22;48368;53.406;6.214;2023-03-01T07:57:41;0.00;99.90
62339;DHT22;48368;53.406;6.214;2023-03-01T08:00:09;0.10;99.90
62339;DHT22;48368;53.406;6.214;2023-03-01T08:02:35;0.10;99.90
62339;DHT22;48368;53.406;6.214;2023-03-01T08:05:00;0.30;99.90
62339;DHT22;48368;53.406;6.214;2023-03-01T08:07:26;0.40;99.90
62339;DHT22;48368;53.406;6.214;2023-03-01T08:09:52;0.60;99.90
62339;DHT22;48368;53.406;6.214;2023-03-01T08:12:17;0.80;99.90
62339;DHT22;48368;53.406;6.214;2023-03-01T08:14:43;0.80;99.90
62339;DHT22;48368;53.406;6.214;2023-03-01T08:17:09;1.00;99.90
62339;DHT22;48368;53.406;6.214;2023-03-01T08:19:34;1.20;99.90
62339;DHT22;48368;53.406;6.214;2023-03-01T08:22:03;1.30;99.90
62339;DHT22;48368;53.406;6.214;2023-03-01T08:24:29;1.50;99.90
62339;DHT22;48368;53.406;6.214;2023-03-01T08:26:55;1.50;99.90
62339;DHT22;48368;53.406;6.214;2023-03-01T08:29:21;1.70;99.90
62339;DHT22;48368;53.406;6.214;2023-03-01T08:31:48;1.80;99.90
62339;DHT22;48368;53.406;6.214;2023-03-01T08:34:17;1.90;99.90
62339;DHT22;48368;53.406;6.214;2023-03-01T08:36:44;2.10;99.90
62339;DHT22;48368;53.406;6.214;2023-03-01T08:39:12;2.30;99.90
62339;DHT22;48368;53.406;6.214;2023-03-01T08:41:39;2.40;99.90
62339;DHT22;48368;53.406;6.214;2023-03-01T08:44:06;2.60;99.90
62339;DHT22;48368;53.406;6.214;2023-03-01T08:46:36;2.60;99.90
62339;DHT22;48368;53.406;6.214;2023-03-01T08:49:29;2.80;99.90
62339;DHT22;48368;53.406;6.214;2023-03-01T08:51:54;2.80;99.90
62339;DHT22;48368;53.406;6.214;2023-03-01T08:54:21;2.80;99.90
62339;DHT22;48368;53.406;6.214;2023-03-01T08:56:47;2.90;99.90
62339;DHT22;48368;53.406;6.214;2023-03-01T08:59:15;3.10;99.90
62339;DHT22;48368;53.406;6.214;2023-03-01T09:01:41;3.20;99.90
62339;DHT22;48368;53.406;6.214;2023-03-01T09:04:10;3.30;99.90
62339;DHT22;48368;53.406;6.214;2023-03-01T09:06:36;3.50;99.90
62339;DHT22;48368;53.406;6.214;2023-03-01T09:09:04;3.60;99.90
62339;DHT22;48368;53.406;6.214;2023-03-01T09:11:30;3.80;99.90
62339;DHT22;48368;53.406;6.214;2023-03-01T09:13:56;3.90;99.90
62339;DHT22;48368;53.406;6.214;2023-03-01T09:16:23;4.10;99.90
62339;DHT22;48368;53.406;6.214;2023-03-01T09:18:51;4.20;99.90
62339;DHT22;48368;53.406;6.214;2023-03-01T09:21:18;4.30;99.90
62339;DHT22;48368;53.406;6.214;2023-03-01T09:23:45;4.50;99.90
62339;DHT22;48368;53.406;6.214;2023-03-01T09:26:14;4.60;99.90
62339;DHT22;48368;53.406;6.214;2023-03-01T09:28:42;4.70;99.90
62339;DHT22;48368;53.406;6.214;2023-03-01T09:31:08;4.80;99.90
62339;DHT22;48368;53.406;6.214;2023-03-01T09:33:34;4.80;99.90
62339;DHT22;48368;53.406;6.214;2023-03-01T09:36:05;4.90;99.90
62339;DHT22;48368;53.406;6.214;2023-03-01T09:38:31;5.10;99.90
62339;DHT22;48368;53.406;6.214;2023-03-01T09:40:57;5.20;99.90
62339;DHT22;48368;53.406;6.214;2023-03-01T09:43:45;5.20;99.90
62339;DHT22;48368;53.406;6.214;2023-03-01T09:46:13;5.30;99.90
62339;DHT22;48368;53.406;6.214;2023-03-01T09:48:54;5.40;99.90
62339;DHT22;48368;53.406;6.214;2023-03-01T09:51:29;5.60;99.90
62339;DHT22;48368;53.406;6.214;2023-03-01T09:53:55;5.80;99.90
62339;DHT22;48368;53.406;6.214;2023-03-01T09:56:32;5.80;99.90
62339;DHT22;48368;53.406;6.214;2023-03-01T10:02:16;6.00;99.90
62339;DHT22;48368;53.406;6.214;2023-03-01T10:04:51;6.20;99.90
62339;DHT22;48368;53.406;6.214;2023-03-01T10:10:05;6.30;99.90
62339;DHT22;48368;53.406;6.214;2023-03-01T10:12:39;6.50;99.90
62339;DHT22;48368;53.406;6.214;2023-03-01T10:17:43;6.60;99.90
62339;DHT22;48368;53.406;6.214;2023-03-01T10:20:23;6.70;99.90
62339;DHT22;48368;53.406;6.214;2023-03-01T10:22:49;6.70;99.90
62339;DHT22;48368;53.406;6.214;2023-03-01T10:25:47;6.80;99.90
62339;DHT22;48368;53.406;6.214;2023-03-01T10:30:42;6.80;99.90
62339;DHT22;48368;53.406;6.214;2023-03-01T10:33:29;6.90;99.90
62339;DHT22;48368;53.406;6.214;2023-03-01T10:35:56;6.90;99.90
62339;DHT22;48368;53.406;6.214;2023-03-01T10:38:22;6.90;99.90
62339;DHT22;48368;53.406;6.214;2023-03-01T10:41:05;7.00;99.90
62339;DHT22;48368;53.406;6.214;2023-03-01T10:43:45;7.20;99.90
62339;DHT22;48368;53.406;6.214;2023-03-01T10:46:30;7.10;99.90
62339;DHT22;48368;53.406;6.214;2023-03-01T10:49:19;7.40;99.90
62339;DHT22;48368;53.406;6.214;2023-03-01T10:51:47;7.50;99.90
62339;DHT22;48368;53.406;6.214;2023-03-01T10:56:50;7.60;99.90
62339;DHT22;48368;53.406;6.214;2023-03-01T10:59:31;7.60;99.90
62339;DHT22;48368;53.406;6.214;2023-03-01T11:02:16;7.70;99.90
62339;DHT22;48368;53.406;6.214;2023-03-01T11:07:58;7.90;99.90
62339;DHT22;48368;53.406;6.214;2023-03-01T11:10:35;8.10;99.90
62339;DHT22;48368;53.406;6.214;2023-03-01T11:13:17;8.10;99.90
62339;DHT22;48368;53.406;6.214;2023-03-01T11:15:59;8.10;99.90
62339;DHT22;48368;53.406;6.214;2023-03-01T11:18:31;8.00;99.90
62339;DHT22;48368;53.406;6.214;2023-03-01T11:20:58;8.30;99.90
62339;DHT22;48368;53.406;6.214;2023-03-01T11:23:25;8.20;99.90
62339;DHT22;48368;53.406;6.214;2023-03-01T11:26:01;8.30;99.90
62339;DHT22;48368;53.406;6.214;2023-03-01T11:28:29;8.40;99.90
62339;DHT22;48368;53.406;6.214;2023-03-01T11:31:07;8.50;99.90
62339;DHT22;48368;53.406;6.214;2023-03-01T11:33:51;8.30;99.90
62339;DHT22;48368;53.406;6.214;2023-03-01T11:36:31;8.20;99.90
62339;DHT22;48368;53.406;6.214;2023-03-01T11:39:03;8.10;99.90
62339;DHT22;48368;53.406;6.214;2023-03-01T11:41:33;8.20;99.90
62339;DHT22;48368;53.406;6.214;2023-03-01T11:44:26;8.10;99.90
62339;DHT22;48368;53.406;6.214;2023-03-01T11:54:54;7.90;99.90
62339;DHT22;48368;53.406;6.214;2023-03-01T12:03:51;8.30;99.90
62339;DHT22;48368;53.406;6.214;2023-03-01T12:08:43;8.20;99.90
62339;DHT22;48368;53.406;6.214;2023-03-01T12:11:29;8.00;99.90
62339;DHT22;48368;53.406;6.214;2023-03-01T12:14:09;8.10;99.90
62339;DHT22;48368;53.406;6.214;2023-03-01T12:19:42;7.90;99.90
62339;DHT22;48368;53.406;6.214;2023-03-01T12:22:30;8.00;99.90
62339;DHT22;48368;53.406;6.214;2023-03-01T12:36:03;8.10;99.90
62339;DHT22;48368;53.406;6.214;2023-03-01T12:38:49;8.20;99.90
62339;DHT22;48368;53.406;6.214;2023-03-01T12:50:39;8.20;99.90
62339;DHT22;48368;53.406;6.214;2023-03-01T12:53:07;8.10;99.90
62339;DHT22;48368;53.406;6.214;2023-03-01T12:55:43;8.10;99.90
62339;DHT22;48368;53.406;6.214;2023-03-01T12:58:28;8.20;99.90
62339;DHT22;48368;53.406;6.214;2023-03-01T13:03:46;8.10;99.90
62339;DHT22;48368;53.406;6.214;2023-03-01T13:06:52;8.00;99.90
62339;DHT22;48368;53.406;6.214;2023-03-01T13:11:50;8.00;99.90
62339;DHT22;48368;53.406;6.214;2023-03-01T13:16:51;7.90;99.90
62339;DHT22;48368;53.406;6.214;2023-03-01T13:19:20;7.90;99.90
62339;DHT22;48368;53.406;6.214;2023-03-01T13:21:47;8.00;99.90
62339;DHT22;48368;53.406;6.214;2023-03-01T13:24:42;8.00;99.90
62339;DHT22;48368;53.406;6.214;2023-03-01T13:29:47;8.30;99.90
62339;DHT22;48368;53.406;6.214;2023-03-01T13:32:30;8.20;99.90
62339;DHT22;48368;53.406;6.214;2023-03-01T13:35:00;8.20;99.90
62339;DHT22;48368;53.406;6.214;2023-03-01T13:37:35;8.20;99.90
62339;DHT22;48368;53.406;6.214;2023-03-01T13:40:56;8.20;99.90
62339;DHT22;48368;53.406;6.214;2023-03-01T13:42:56;8.00;99.90
62339;DHT22;48368;53.406;6.214;2023-03-01T13:45:32;8.00;99.90
62339;DHT22;48368;53.406;6.214;2023-03-01T13:48:20;8.10;99.90
62339;DHT22;48368;53.406;6.214;2023-03-01T13:50:51;8.20;99.90
62339;DHT22;48368;53.406;6.214;2023-03-01T13:53:20;8.00;99.90
62339;DHT22;48368;53.406;6.214;2023-03-01T13:55:52;8.00;99.90
62339;DHT22;48368;53.406;6.214;2023-03-01T13:58:26;8.00;99.90
62339;DHT22;48368;53.406;6.214;2023-03-01T14:01:03;7.90;99.90
62339;DHT22;48368;53.406;6.214;2023-03-01T14:03:31;8.00;99.90
62339;DHT22;48368;53.406;6.214;2023-03-01T14:06:09;7.80;99.90
62339;DHT22;48368;53.406;6.214;2023-03-01T14:08:38;7.80;99.90
62339;DHT22;48368;53.406;6.214;2023-03-01T14:19:28;7.60;99.90
62339;DHT22;48368;53.406;6.214;2023-03-01T14:24:35;7.70;99.90
62339;DHT22;48368;53.406;6.214;2023-03-01T14:27:04;7.70;99.90
62339;DHT22;48368;53.406;6.214;2023-03-01T14:29:38;7.80;99.90
62339;DHT22;48368;53.406;6.214;2023-03-01T14:32:16;7.60;99.90
62339;DHT22;48368;53.406;6.214;2023-03-01T14:34:46;7.70;99.90
62339;DHT22;48368;53.406;6.214;2023-03-01T14:39:55;7.70;99.90
62339;DHT22;48368;53.406;6.214;2023-03-01T14:42:25;7.60;99.90
62339;DHT22;48368;53.406;6.214;2023-03-01T14:44:54;7.60;99.90
62339;DHT22;48368;53.406;6.214;2023-03-01T14:47:31;7.60;99.90
62339;DHT22;48368;53.406;6.214;2023-03-01T14:52:46;7.40;99.90
62339;DHT22;48368;53.406;6.214;2023-03-01T14:55:28;7.40;99.90
62339;DHT22;48368;53.406;6.214;2023-03-01T14:57:56;7.50;99.90
62339;DHT22;48368;53.406;6.214;2023-03-01T15:00:30;7.50;99.90
62339;DHT22;48368;53.406;6.214;2023-03-01T15:03:02;7.40;99.90
62339;DHT22;48368;53.406;6.214;2023-03-01T15:05:31;7.30;99.90
62339;DHT22;48368;53.406;6.214;2023-03-01T15:07:58;7.40;99.90
62339;DHT22;48368;53.406;6.214;2023-03-01T15:10:35;7.40;99.90
62339;DHT22;48368;53.406;6.214;2023-03-01T15:13:13;7.40;99.90
62339;DHT22;48368;53.406;6.214;2023-03-01T15:15:42;7.30;99.90
62339;DHT22;48368;53.406;6.214;2023-03-01T15:18:16;7.30;99.90
62339;DHT22;48368;53.406;6.214;2023-03-01T15:20:42;7.30;99.90
62339;DHT22;48368;53.406;6.214;2023-03-01T15:23:25;7.30;99.90
62339;DHT22;48368;53.406;6.214;2023-03-01T15:25:52;7.00;99.90
62339;DHT22;48368;53.406;6.214;2023-03-01T15:28:24;7.00;99.90
62339;DHT22;48368;53.406;6.214;2023-03-01T15:33:41;7.10;99.90
62339;DHT22;48368;53.406;6.214;2023-03-01T15:36:35;6.90;99.90
62339;DHT22;48368;53.406;6.214;2023-03-01T15:39:02;6.90;99.90
62339;DHT22;48368;53.406;6.214;2023-03-01T15:41:31;6.80;99.90
62339;DHT22;48368;53.406;6.214;2023-03-01T15:44:14;6.70;99.90
62339;DHT22;48368;53.406;6.214;2023-03-01T15:46:40;6.60;99.90
62339;DHT22;48368;53.406;6.214;2023-03-01T15:49:41;6.60;99.90
62339;DHT22;48368;53.406;6.214;2023-03-01T15:52:19;6.50;99.90
62339;DHT22;48368;53.406;6.214;2023-03-01T15:54:46;6.40;99.90
62339;DHT22;48368;53.406;6.214;2023-03-01T15:57:13;6.50;99.90
62339;DHT22;48368;53.406;6.214;2023-03-01T15:59:40;6.30;99.90
62339;DHT22;48368;53.406;6.214;2023-03-01T16:02:11;6.30;99.90
62339;DHT22;48368;53.406;6.214;2023-03-01T16:04:38;6.30;99.90
62339;DHT22;48368;53.406;6.214;2023-03-01T16:07:04;6.30;99.90
62339;DHT22;48368;53.406;6.214;2023-03-01T16:09:30;6.30;99.90
62339;DHT22;48368;53.406;6.214;2023-03-01T16:11:55;6.20;99.90
62339;DHT22;48368;53.406;6.214;2023-03-01T16:14:21;6.30;99.90
62339;DHT22;48368;53.406;6.214;2023-03-01T16:16:48;6.20;99.90
62339;DHT22;48368;53.406;6.214;2023-03-01T16:19:14;6.10;99.90
62339;DHT22;48368;53.406;6.214;2023-03-01T16:21:41;6.10;99.90
62339;DHT22;48368;53.406;6.214;2023-03-01T16:24:08;6.00;99.90
62339;DHT22;48368;53.406;6.214;2023-03-01T16:26:34;5.90;99.90
62339;DHT22;48368;53.406;6.214;2023-03-01T16:29:00;5.90;99.90
62339;DHT22;48368;53.406;6.214;2023-03-01T16:31:25;5.90;99.90
62339;DHT22;48368;53.406;6.214;2023-03-01T16:33:56;5.90;99.90
62339;DHT22;48368;53.406;6.214;2023-03-01T16:36:23;5.80;99.90
62339;DHT22;48368;53.406;6.214;2023-03-01T16:38:51;5.80;99.90
62339;DHT22;48368;53.406;6.214;2023-03-01T16:41:20;5.60;99.90
62339;DHT22;48368;53.406;6.214;2023-03-01T16:43:46;5.70;99.90
62339;DHT22;48368;53.406;6.214;2023-03-01T16:46:15;5.60;99.90
62339;DHT22;48368;53.406;6.214;2023-03-01T16:48:41;5.60;99.90
62339;DHT22;48368;53.406;6.214;2023-03-01T16:51:07;5.60;99.90
62339;DHT22;48368;53.406;6.214;2023-03-01T16:53:34;5.50;99.90
62339;DHT22;48368;53.406;6.214;2023-03-01T16:56:03;5.50;99.90
62339;DHT22;48368;53.406;6.214;2023-03-01T16:58:30;5.40;99.90
62339;DHT22;48368;53.406;6.214;2023-03-01T17:00:55;5.50;99.90
62339;DHT22;48368;53.406;6.214;2023-03-01T17:03:25;5.40;99.90
62339;DHT22;48368;53.406;6.214;2023-03-01T17:05:51;5.40;99.90
62339;DHT22;48368;53.406;6.214;2023-03-01T17:08:17;5.30;99.90
62339;DHT22;48368;53.406;6.214;2023-03-01T17:10:43;5.30;99.90
62339;DHT22;48368;53.406;6.214;2023-03-01T17:13:09;5.20;99.90
62339;DHT22;48368;53.406;6.214;2023-03-01T17:15:38;5.10;99.90
62339;DHT22;48368;53.406;6.214;2023-03-01T17:18:04;5.10;99.90
62339;DHT22;48368;53.406;6.214;2023-03-01T17:20:30;5.10;99.90
62339;DHT22;48368;53.406;6.214;2023-03-01T17:22:55;5.00;99.90
62339;DHT22;48368;53.406;6.214;2023-03-01T17:25:21;5.00;99.90
62339;DHT22;48368;53.406;6.214;2023-03-01T17:27:46;5.00;99.90
62339;DHT22;48368;53.406;6.214;2023-03-01T17:30:13;5.00;99.90